Time;durP1;ratioP1;P1;durP2;ratioP2;P2;SDS_P1;SDS_P2;PMS_P1;PMS_P2;Temp;Humidity;BMP_temperature;BMP_pressure;BME280_temperature;BME280_humidity;BME280_pressure;Samples;Min_cycle;Max_cycle;Signal;HPM_P1;HPM_P2
2023/08/29 00:00:41;;;;;;;222.60;79.07;;;;;;;;;;5072931;28;20399;-51
2023/08/29 00:03:07;;;;;;;213.57;76.30;;;;;;;;;;5073172;28;20952;-50
2023/08/29 00:05:33;;;;;;;222.07;82.87;;;;;;;;;;5073074;28;20405;-50
2023/08/29 00:07:59;;;;;;;217.17;78.40;;;;;;;;;;5073111;28;20942;-50
2023/08/29 00:10:25;;;;;;;218.50;77.97;;;;;;;;;;5073299;28;20401;-50
2023/08/29 00:12:51;;;;;;;219.53;77.57;;;;;;;;;;5073093;28;20772;-51
2023/08/29 00:15:17;;;;;;;219.97;79.40;;;;;;;;;;5072831;28;20448;-50
2023/08/29 00:17:44;;;;;;;224.07;81.57;;;;;;;;;;5072936;28;20439;-50
2023/08/29 00:20:13;;;;;;;220.47;78.70;;;;;;;;;;5072739;28;20406;-49
2023/08/29 00:22:39;;;;;;;220.27;79.07;;;;;;;;;;5072661;28;20425;-51
2023/08/29 00:25:05;;;;;;;224.37;82.47;;;;;;;;;;5072587;28;20403;-50
2023/08/29 00:27:30;;;;;;;229.83;88.47;;;;;;;;;;5072707;28;20841;-49
2023/08/29 00:29:56;;;;;;;225.30;85.90;;;;;;;;;;5072407;28;20413;-50
2023/08/29 00:32:22;;;;;;;221.47;83.00;;;;;;;;;;5072782;28;20807;-51
2023/08/29 00:34:48;;;;;;;220.80;83.17;;;;;;;;;;5072408;28;20822;-51
2023/08/29 00:37:14;;;;;;;220.30;81.80;;;;;;;;;;5072585;28;20408;-51
2023/08/29 00:39:40;;;;;;;222.47;86.20;;;;;;;;;;5072121;28;20404;-50
2023/08/29 00:42:06;;;;;;;226.67;88.53;;;;;;;;;;5072092;28;20442;-51
2023/08/29 00:44:32;;;;;;;221.93;84.47;;;;;;;;;;5072361;28;20442;-50
2023/08/29 00:46:58;;;;;;;221.53;83.90;;;;;;;;;;5072346;28;20393;-50
2023/08/29 00:49:26;;;;;;;225.83;86.97;;;;;;;;;;5072317;28;20948;-50
2023/08/29 00:51:52;;;;;;;221.40;82.73;;;;;;;;;;5071891;28;20426;-51
2023/08/29 00:54:19;;;;;;;223.10;85.57;;;;;;;;;;5071597;28;20421;-51
2023/08/29 00:56:46;;;;;;;219.47;81.90;;;;;;;;;;5072017;28;20488;-50
2023/08/29 00:59:12;;;;;;;221.73;81.43;;;;;;;;;;5072120;28;20882;-50
2023/08/29 01:01:39;;;;;;;226.50;84.67;;;;;;;;;;5071290;28;20384;-51
2023/08/29 01:04:05;;;;;;;222.47;84.10;;;;;;;;;;5068825;28;20928;-51
2023/08/29 01:06:31;;;;;;;223.93;87.33;;;;;;;;;;5071472;28;20458;-51
2023/08/29 01:08:58;;;;;;;219.60;81.70;;;;;;;;;;5072582;28;20415;-51
2023/08/29 01:11:34;;;;;;;222.73;82.77;;;;;;;;;;5071252;28;20432;-50
2023/08/29 01:14:19;;;;;;;221.80;83.97;;;;;;;;;;5071535;28;20420;-49
2023/08/29 01:16:52;;;;;;;224.20;86.20;;;;;;;;;;5064301;28;20410;-50
2023/08/29 01:19:20;;;;;;;224.30;85.77;;;;;;;;;;5071645;28;20503;-50
2023/08/29 01:21:49;;;;;;;225.83;86.93;;;;;;;;;;5079170;28;20401;-50
2023/08/29 01:24:26;;;;;;;225.27;86.47;;;;;;;;;;5068154;28;20774;-50
2023/08/29 01:26:52;;;;;;;224.60;86.20;;;;;;;;;;5071673;28;20401;-49
2023/08/29 01:29:19;;;;;;;224.00;85.67;;;;;;;;;;5071553;28;20484;-49
2023/08/29 01:31:45;;;;;;;229.43;89.37;;;;;;;;;;5071402;28;20411;-49
2023/08/29 01:34:12;;;;;;;224.07;86.37;;;;;;;;;;5071235;28;20423;-51
2023/08/29 01:36:41;;;;;;;223.87;86.90;;;;;;;;;;5071509;28;20490;-49
2023/08/29 01:39:07;;;;;;;226.17;89.13;;;;;;;;;;5071545;28;20416;-50
2023/08/29 01:41:33;;;;;;;230.27;95.13;;;;;;;;;;5071192;28;20428;-49
2023/08/29 01:44:03;;;;;;;225.70;89.03;;;;;;;;;;5071347;28;20412;-50
2023/08/29 01:46:29;;;;;;;228.00;92.70;;;;;;;;;;5071382;28;20416;-51
2023/08/29 01:48:57;;;;;;;227.07;87.97;;;;;;;;;;5071300;28;20405;-50
2023/08/29 01:51:23;;;;;;;228.00;90.40;;;;;;;;;;5071052;28;20428;-50
2023/08/29 01:53:49;;;;;;;232.67;95.20;;;;;;;;;;5073120;28;20808;-50
2023/08/29 01:56:16;;;;;;;228.30;88.83;;;;;;;;;;5075663;28;20460;-50
2023/08/29 01:58:43;;;;;;;235.70;103.50;;;;;;;;;;5075333;28;20799;-50
2023/08/29 02:01:09;;;;;;;229.03;91.47;;;;;;;;;;5075051;28;20415;-50
2023/08/29 02:03:35;;;;;;;231.23;94.00;;;;;;;;;;5074717;28;20423;-50
2023/08/29 02:06:01;;;;;;;229.80;92.50;;;;;;;;;;5075250;28;20406;-50
2023/08/29 02:08:27;;;;;;;233.10;95.13;;;;;;;;;;5075600;28;20504;-51
2023/08/29 02:10:53;;;;;;;228.47;91.87;;;;;;;;;;5074844;28;20828;-51
2023/08/29 02:13:19;;;;;;;229.80;92.13;;;;;;;;;;5075106;28;20811;-51
2023/08/29 02:15:45;;;;;;;229.70;93.47;;;;;;;;;;5075165;28;20456;-51
2023/08/29 02:18:10;;;;;;;230.23;90.77;;;;;;;;;;5075298;28;20861;-50
2023/08/29 02:20:37;;;;;;;229.90;89.30;;;;;;;;;;5074924;28;20821;-49
2023/08/29 02:23:03;;;;;;;234.77;95.17;;;;;;;;;;5074878;28;20416;-51
2023/08/29 02:25:29;;;;;;;227.87;90.13;;;;;;;;;;5075013;28;20427;-50
2023/08/29 02:27:55;;;;;;;230.70;94.40;;;;;;;;;;5075160;28;20404;-50
2023/08/29 02:30:21;;;;;;;225.90;89.50;;;;;;;;;;5074733;28;20487;-50
2023/08/29 02:32:47;;;;;;;229.70;92.07;;;;;;;;;;5074906;28;20907;-50
2023/08/29 02:35:13;;;;;;;230.60;94.63;;;;;;;;;;5075238;28;20563;-51
2023/08/29 02:37:40;;;;;;;229.17;94.00;;;;;;;;;;5074646;28;20396;-52
2023/08/29 02:40:08;;;;;;;227.63;92.43;;;;;;;;;;5074510;28;20400;-50
2023/08/29 02:42:34;;;;;;;225.80;90.77;;;;;;;;;;5074665;28;20485;-50
2023/08/29 02:45:00;;;;;;;230.70;96.20;;;;;;;;;;5074828;28;20432;-50
2023/08/29 02:47:26;;;;;;;227.23;92.23;;;;;;;;;;5074688;28;20920;-50
2023/08/29 02:49:52;;;;;;;224.93;91.20;;;;;;;;;;5074384;28;20444;-51
2023/08/29 02:52:18;;;;;;;224.57;89.80;;;;;;;;;;5074172;28;20432;-50
2023/08/29 02:54:45;;;;;;;223.17;89.10;;;;;;;;;;5074419;28;20484;-50
2023/08/29 02:57:11;;;;;;;225.87;92.07;;;;;;;;;;5074455;28;20402;-50
2023/08/29 02:59:37;;;;;;;228.30;98.83;;;;;;;;;;5074305;28;20418;-50
2023/08/29 03:02:04;;;;;;;236.33;98.27;;;;;;;;;;5071814;28;20847;-50
2023/08/29 03:04:30;;;;;;;223.77;93.10;;;;;;;;;;5073626;28;20424;-49
2023/08/29 03:06:56;;;;;;;228.40;98.60;;;;;;;;;;5074085;28;20432;-50
2023/08/29 03:09:22;;;;;;;220.57;92.10;;;;;;;;;;5077263;28;20789;-49
2023/08/29 03:11:48;;;;;;;224.87;93.67;;;;;;;;;;5073839;28;20406;-50
2023/08/29 03:14:15;;;;;;;228.67;100.53;;;;;;;;;;5073673;28;20425;-51
2023/08/29 03:16:41;;;;;;;224.17;92.90;;;;;;;;;;5073901;28;20956;-50
2023/08/29 03:19:07;;;;;;;228.80;94.20;;;;;;;;;;5073824;28;20495;-49
2023/08/29 03:21:33;;;;;;;228.70;95.80;;;;;;;;;;5073200;28;20518;-50
2023/08/29 03:23:59;;;;;;;230.07;97.07;;;;;;;;;;5073612;28;20412;-50
2023/08/29 03:26:24;;;;;;;225.63;94.77;;;;;;;;;;5073863;28;20926;-50
2023/08/29 03:28:50;;;;;;;228.63;98.37;;;;;;;;;;5073756;28;20406;-50
2023/08/29 03:31:17;;;;;;;228.47;100.47;;;;;;;;;;5073414;28;20412;-49
2023/08/29 03:33:44;;;;;;;229.33;103.93;;;;;;;;;;5073485;28;20517;-50
2023/08/29 03:36:10;;;;;;;230.27;101.67;;;;;;;;;;5073409;28;20464;-50
2023/08/29 03:38:37;;;;;;;228.90;97.90;;;;;;;;;;5073466;28;20408;-50
2023/08/29 03:41:03;;;;;;;229.67;97.83;;;;;;;;;;5073170;28;20397;-49
2023/08/29 03:43:33;;;;;;;231.73;103.50;;;;;;;;;;5073237;28;20428;-51
2023/08/29 03:45:59;;;;;;;232.30;101.83;;;;;;;;;;5073368;28;20465;-50
2023/08/29 03:48:25;;;;;;;231.77;100.00;;;;;;;;;;5073110;28;20416;-50
2023/08/29 03:50:51;;;;;;;232.77;102.17;;;;;;;;;;5073077;28;20793;-50
2023/08/29 03:53:17;;;;;;;233.63;100.03;;;;;;;;;;5073017;28;20433;-49
2023/08/29 03:55:43;;;;;;;233.00;101.57;;;;;;;;;;5073066;28;20793;-51
2023/08/29 03:58:09;;;;;;;234.47;103.97;;;;;;;;;;5078965;28;20397;-51
2023/08/29 04:00:35;;;;;;;239.37;110.57;;;;;;;;;;5072757;28;20397;-50
2023/08/29 04:03:05;;;;;;;231.97;99.43;;;;;;;;;;5072776;28;20428;-50
2023/08/29 04:05:31;;;;;;;235.70;103.27;;;;;;;;;;5073112;28;20546;-51
2023/08/29 04:07:57;;;;;;;230.70;99.70;;;;;;;;;;5073054;28;20440;-50
2023/08/29 04:10:22;;;;;;;233.17;100.53;;;;;;;;;;5073015;28;20883;-50
2023/08/29 04:12:48;;;;;;;229.60;99.90;;;;;;;;;;5073028;28;20851;-49
2023/08/29 04:15:14;;;;;;;233.97;103.93;;;;;;;;;;5072817;28;20448;-50
2023/08/29 04:17:40;;;;;;;236.03;104.10;;;;;;;;;;5072183;28;20413;-50
2023/08/29 04:20:12;;;;;;;232.57;99.03;;;;;;;;;;5072851;28;20806;-51
2023/08/29 04:22:38;;;;;;;231.57;97.87;;;;;;;;;;5072775;28;20455;-50
2023/08/29 04:25:05;;;;;;;233.77;100.60;;;;;;;;;;5072696;28;20433;-51
2023/08/29 04:27:31;;;;;;;235.00;106.47;;;;;;;;;;5072754;28;20897;-50
2023/08/29 04:29:57;;;;;;;238.93;109.23;;;;;;;;;;5072469;28;20649;-50
2023/08/29 04:32:23;;;;;;;237.33;107.47;;;;;;;;;;5072496;28;20606;-50
2023/08/29 04:34:50;;;;;;;233.03;104.23;;;;;;;;;;5072414;28;20471;-50
2023/08/29 04:37:16;;;;;;;233.63;103.10;;;;;;;;;;5072657;28;20396;-51
2023/08/29 04:39:44;;;;;;;237.63;108.40;;;;;;;;;;5072213;28;20412;-50
2023/08/29 04:42:10;;;;;;;238.53;105.23;;;;;;;;;;5072439;28;20885;-50
2023/08/29 04:44:37;;;;;;;237.30;112.57;;;;;;;;;;5072345;28;20401;-50
2023/08/29 04:47:04;;;;;;;231.83;101.47;;;;;;;;;;5072327;28;20396;-50
2023/08/29 04:49:30;;;;;;;233.30;106.43;;;;;;;;;;5072275;28;20400;-50
2023/08/29 04:51:56;;;;;;;235.83;109.83;;;;;;;;;;5071900;28;20416;-49
2023/08/29 04:54:22;;;;;;;234.43;109.03;;;;;;;;;;5072480;28;20421;-50
2023/08/29 04:56:48;;;;;;;235.63;105.77;;;;;;;;;;5072142;28;20824;-50
2023/08/29 04:59:15;;;;;;;233.23;105.47;;;;;;;;;;5072104;28;20408;-50
2023/08/29 05:01:41;;;;;;;234.57;106.97;;;;;;;;;;5071866;28;20397;-50
2023/08/29 05:04:08;;;;;;;234.40;107.03;;;;;;;;;;5072252;28;20919;-51
2023/08/29 05:06:34;;;;;;;239.00;115.07;;;;;;;;;;5072014;28;20412;-50
2023/08/29 05:09:00;;;;;;;242.17;118.47;;;;;;;;;;5072007;28;20401;-50
2023/08/29 05:11:26;;;;;;;238.30;112.17;;;;;;;;;;5071798;28;20439;-51
2023/08/29 05:13:52;;;;;;;242.87;117.00;;;;;;;;;;5071762;28;20784;-51
2023/08/29 05:16:18;;;;;;;238.23;114.80;;;;;;;;;;5072090;28;20456;-49
2023/08/29 05:18:45;;;;;;;251.50;140.77;;;;;;;;;;5072128;28;20453;-50
2023/08/29 05:21:11;;;;;;;253.70;143.60;;;;;;;;;;5071658;28;20399;-50
2023/08/29 05:23:37;;;;;;;250.27;139.30;;;;;;;;;;5071918;28;20416;-50
2023/08/29 05:26:05;;;;;;;254.77;147.17;;;;;;;;;;5071776;28;20436;-52
2023/08/29 05:28:31;;;;;;;247.60;132.17;;;;;;;;;;5072324;28;20434;-50
2023/08/29 05:30:56;;;;;;;246.63;130.40;;;;;;;;;;5071610;28;20406;-50
2023/08/29 05:33:22;;;;;;;249.87;133.70;;;;;;;;;;5071701;28;20533;-50
2023/08/29 05:35:48;;;;;;;250.77;137.57;;;;;;;;;;5071823;28;20452;-51
2023/08/29 05:38:14;;;;;;;253.27;144.57;;;;;;;;;;5069079;28;20420;-50
2023/08/29 05:40:41;;;;;;;248.00;133.13;;;;;;;;;;5076588;28;20416;-50
2023/08/29 05:43:07;;;;;;;255.20;142.33;;;;;;;;;;5075170;28;20923;-50
2023/08/29 05:45:33;;;;;;;251.37;138.53;;;;;;;;;;5072497;28;20424;-51
2023/08/29 05:47:59;;;;;;;247.97;136.10;;;;;;;;;;5071387;28;20885;-50
2023/08/29 05:50:25;;;;;;;252.07;139.07;;;;;;;;;;5070998;28;20430;-50
2023/08/29 05:52:51;;;;;;;252.47;140.87;;;;;;;;;;5070134;28;20436;-50
2023/08/29 05:55:18;;;;;;;253.67;144.03;;;;;;;;;;5071122;28;20452;-50
2023/08/29 05:57:44;;;;;;;255.50;149.77;;;;;;;;;;5071274;28;20409;-49
2023/08/29 06:00:14;;;;;;;251.20;135.80;;;;;;;;;;5071382;28;20416;-50
2023/08/29 06:02:41;;;;;;;249.07;136.07;;;;;;;;;;5062435;28;20432;-50
2023/08/29 06:05:07;;;;;;;248.03;131.10;;;;;;;;;;5071420;28;20452;-50
2023/08/29 06:07:33;;;;;;;249.93;134.37;;;;;;;;;;5070035;28;20471;-49
2023/08/29 06:09:59;;;;;;;249.27;134.87;;;;;;;;;;5071119;28;20410;-51
2023/08/29 06:12:26;;;;;;;248.97;133.60;;;;;;;;;;5071060;28;20434;-50
2023/08/29 06:14:54;;;;;;;253.53;137.70;;;;;;;;;;5071406;28;20933;-50
2023/08/29 06:17:21;;;;;;;253.90;138.00;;;;;;;;;;5071197;28;20782;-49
2023/08/29 06:19:47;;;;;;;265.27;155.07;;;;;;;;;;5070988;28;20405;-50
2023/08/29 06:22:13;;;;;;;260.67;144.37;;;;;;;;;;5071007;28;20411;-49
2023/08/29 06:24:39;;;;;;;259.50;143.40;;;;;;;;;;5062726;28;20487;-50
2023/08/29 06:27:05;;;;;;;263.37;151.40;;;;;;;;;;5071043;28;20404;-49
2023/08/29 06:29:32;;;;;;;265.47;154.40;;;;;;;;;;5070934;28;20406;-51
2023/08/29 06:31:58;;;;;;;267.60;154.13;;;;;;;;;;5076100;28;20909;-50
2023/08/29 06:34:24;;;;;;;264.43;153.07;;;;;;;;;;5072438;28;20440;-49
2023/08/29 06:36:50;;;;;;;266.40;160.67;;;;;;;;;;5069960;28;20462;-51
2023/08/29 06:39:17;;;;;;;270.23;163.00;;;;;;;;;;5071037;28;20409;-49
2023/08/29 06:41:44;;;;;;;269.57;157.37;;;;;;;;;;5073487;28;20487;-50
2023/08/29 06:44:10;;;;;;;268.07;152.33;;;;;;;;;;5073890;28;20507;-50
2023/08/29 06:46:36;;;;;;;266.57;155.07;;;;;;;;;;5073632;28;20572;-49
2023/08/29 06:49:05;;;;;;;260.47;145.47;;;;;;;;;;5074026;28;20409;-49
2023/08/29 06:51:31;;;;;;;265.43;153.43;;;;;;;;;;5073552;28;20524;-51
2023/08/29 06:53:57;;;;;;;264.03;152.53;;;;;;;;;;5074351;28;20485;-49
2023/08/29 06:56:23;;;;;;;270.70;158.03;;;;;;;;;;5074482;28;20452;-50
2023/08/29 06:58:51;;;;;;;267.37;155.17;;;;;;;;;;5074164;28;20516;-50
2023/08/29 07:01:17;;;;;;;266.27;150.57;;;;;;;;;;5073842;28;20461;-51
2023/08/29 07:03:43;;;;;;;264.80;149.60;;;;;;;;;;5073781;28;20419;-50
2023/08/29 07:06:09;;;;;;;263.47;153.60;;;;;;;;;;5074275;28;20416;-50
2023/08/29 07:08:37;;;;;;;266.67;155.30;;;;;;;;;;5074464;28;20405;-50
2023/08/29 07:11:03;;;;;;;275.10;154.90;;;;;;;;;;5071842;28;20462;-50
2023/08/29 07:13:31;;;;;;;270.33;161.20;;;;;;;;;;5072303;28;20815;-50
2023/08/29 07:15:57;;;;;;;273.03;156.80;;;;;;;;;;5073915;28;20450;-50
2023/08/29 07:18:23;;;;;;;274.37;160.27;;;;;;;;;;5073738;28;20416;-51
2023/08/29 07:20:49;;;;;;;269.30;154.17;;;;;;;;;;5073483;28;20944;-49
2023/08/29 07:23:15;;;;;;;268.07;150.10;;;;;;;;;;5073027;28;20441;-50
2023/08/29 07:25:44;;;;;;;272.17;160.27;;;;;;;;;;5073921;28;20411;-50
2023/08/29 07:28:11;;;;;;;272.40;155.60;;;;;;;;;;5073710;28;20423;-49
2023/08/29 07:30:46;;;;;;;270.63;156.53;;;;;;;;;;5073523;28;20509;-50
2023/08/29 07:33:12;;;;;;;273.73;164.50;;;;;;;;;;5073925;28;20436;-50
2023/08/29 07:35:39;;;;;;;275.47;163.07;;;;;;;;;;5073245;28;20462;-49
2023/08/29 07:38:07;;;;;;;273.63;160.93;;;;;;;;;;5073569;28;20484;-50
2023/08/29 07:40:33;;;;;;;273.77;161.27;;;;;;;;;;5073156;28;20416;-49
2023/08/29 07:43:07;;;;;;;279.17;167.53;;;;;;;;;;5073396;28;20778;-50
2023/08/29 07:45:34;;;;;;;273.90;164.13;;;;;;;;;;5073734;28;20441;-50
2023/08/29 07:48:00;;;;;;;275.57;168.40;;;;;;;;;;5073330;28;20959;-50
2023/08/29 07:50:27;;;;;;;276.00;166.90;;;;;;;;;;5072319;28;20424;-49
2023/08/29 07:52:53;;;;;;;275.87;168.03;;;;;;;;;;5072823;28;20533;-49
2023/08/29 07:55:20;;;;;;;273.03;162.97;;;;;;;;;;5073061;28;20898;-50
2023/08/29 07:57:46;;;;;;;278.60;176.83;;;;;;;;;;5073181;28;20794;-50
2023/08/29 08:00:13;;;;;;;275.33;160.63;;;;;;;;;;5072890;28;20406;-50
2023/08/29 08:02:41;;;;;;;275.37;162.80;;;;;;;;;;5072561;28;21007;-49
2023/08/29 08:05:08;;;;;;;274.67;160.97;;;;;;;;;;5072973;28;20408;-49
2023/08/29 08:07:33;;;;;;;281.20;172.77;;;;;;;;;;5073109;28;20422;-50
2023/08/29 08:09:59;;;;;;;278.47;170.57;;;;;;;;;;5072701;28;20417;-51
2023/08/29 08:12:25;;;;;;;283.40;172.97;;;;;;;;;;5072755;28;20485;-50
2023/08/29 08:14:53;;;;;;;287.23;180.67;;;;;;;;;;5072580;28;20439;-50
2023/08/29 08:17:19;;;;;;;291.13;176.90;;;;;;;;;;5069730;28;20544;-49
2023/08/29 08:19:47;;;;;;;291.53;189.80;;;;;;;;;;5072381;28;20412;-49
2023/08/29 08:22:13;;;;;;;288.67;189.03;;;;;;;;;;5072592;28;20415;-49
2023/08/29 08:24:40;;;;;;;285.87;180.80;;;;;;;;;;5068141;28;20409;-49
2023/08/29 08:27:07;;;;;;;286.30;178.40;;;;;;;;;;5069354;28;20905;-51
2023/08/29 08:29:33;;;;;;;294.00;190.43;;;;;;;;;;5072256;28;20483;-50
2023/08/29 08:32:01;;;;;;;266.53;158.73;;;;;;;;;;5071955;28;20461;-50
2023/08/29 08:34:28;;;;;;;267.73;160.80;;;;;;;;;;5072563;28;20424;-50
2023/08/29 08:36:54;;;;;;;273.17;168.53;;;;;;;;;;5072943;28;20456;-50
2023/08/29 08:39:22;;;;;;;271.63;166.10;;;;;;;;;;5072854;28;20403;-50
2023/08/29 08:41:48;;;;;;;271.37;168.30;;;;;;;;;;5072263;28;20405;-50
2023/08/29 08:44:17;;;;;;;275.87;172.53;;;;;;;;;;5072392;28;20499;-50
2023/08/29 08:46:44;;;;;;;272.10;168.23;;;;;;;;;;5072795;28;20910;-50
2023/08/29 08:49:11;;;;;;;277.80;177.57;;;;;;;;;;5072451;28;20428;-50
2023/08/29 08:51:37;;;;;;;276.27;173.23;;;;;;;;;;5072020;28;20438;-50
2023/08/29 08:54:04;;;;;;;266.50;161.97;;;;;;;;;;5072100;28;20435;-50
2023/08/29 08:56:31;;;;;;;270.67;166.63;;;;;;;;;;5072075;28;20454;-49
2023/08/29 08:58:59;;;;;;;276.10;167.33;;;;;;;;;;5072199;28;20410;-50
2023/08/29 09:01:25;;;;;;;278.63;172.80;;;;;;;;;;5072220;28;20489;-51
2023/08/29 09:03:51;;;;;;;278.43;178.33;;;;;;;;;;5071481;28;20430;-50
2023/08/29 09:06:17;;;;;;;280.33;178.17;;;;;;;;;;5072117;28;20411;-51
2023/08/29 09:08:44;;;;;;;275.47;175.20;;;;;;;;;;5072416;28;20404;-50
2023/08/29 09:11:10;;;;;;;281.50;184.57;;;;;;;;;;5071892;28;20397;-51
2023/08/29 09:13:45;;;;;;;282.77;177.53;;;;;;;;;;5071835;28;20417;-51
2023/08/29 09:16:11;;;;;;;279.07;175.73;;;;;;;;;;5072149;28;20828;-50
2023/08/29 09:18:42;;;;;;;282.07;177.97;;;;;;;;;;5071013;28;20450;-50
2023/08/29 09:21:16;;;;;;;280.43;177.53;;;;;;;;;;5071630;28;20752;-50
2023/08/29 09:23:42;;;;;;;278.27;170.70;;;;;;;;;;5071870;28;20423;-50
2023/08/29 09:26:12;;;;;;;279.87;176.30;;;;;;;;;;5071811;28;20455;-51
2023/08/29 09:28:38;;;;;;;276.87;171.23;;;;;;;;;;5071965;28;20388;-50
2023/08/29 09:31:06;;;;;;;279.80;174.13;;;;;;;;;;5071585;28;20540;-49
2023/08/29 09:33:32;;;;;;;276.63;172.43;;;;;;;;;;5071963;28;20423;-50
2023/08/29 09:36:01;;;;;;;275.57;169.97;;;;;;;;;;5073522;28;20815;-51
2023/08/29 09:38:31;;;;;;;274.67;168.07;;;;;;;;;;5071786;28;20895;-49
2023/08/29 09:40:57;;;;;;;276.07;171.37;;;;;;;;;;5071508;28;20400;-49
2023/08/29 09:43:23;;;;;;;276.97;171.73;;;;;;;;;;5071634;28;20419;-50
2023/08/29 09:45:50;;;;;;;277.87;174.00;;;;;;;;;;5071612;28;20431;-50
2023/08/29 09:48:17;;;;;;;278.17;176.50;;;;;;;;;;5071608;28;20408;-51
2023/08/29 09:50:43;;;;;;;278.60;179.70;;;;;;;;;;5071253;28;20431;-50
2023/08/29 09:53:10;;;;;;;274.57;175.10;;;;;;;;;;5088504;28;20501;-49
2023/08/29 09:55:54;;;;;;;277.13;175.73;;;;;;;;;;5091688;28;20458;-50
2023/08/29 09:58:22;;;;;;;274.70;171.87;;;;;;;;;;5091645;28;20402;-49
2023/08/29 10:00:50;;;;;;;278.87;180.77;;;;;;;;;;5091787;28;20750;-49
2023/08/29 10:03:17;;;;;;;279.43;191.03;;;;;;;;;;5091303;28;20443;-49
2023/08/29 10:05:45;;;;;;;274.10;176.40;;;;;;;;;;5090562;28;20411;-49
2023/08/29 10:08:11;;;;;;;279.57;187.93;;;;;;;;;;5091654;28;20930;-49
2023/08/29 10:10:39;;;;;;;279.37;185.10;;;;;;;;;;5091305;28;20407;-49
2023/08/29 10:13:07;;;;;;;281.13;190.77;;;;;;;;;;5091579;28;20427;-50
2023/08/29 10:15:34;;;;;;;280.87;186.67;;;;;;;;;;5094672;28;20439;-50
2023/08/29 10:18:00;;;;;;;281.13;188.43;;;;;;;;;;5095470;28;20460;-52
2023/08/29 10:20:26;;;;;;;279.87;186.13;;;;;;;;;;5095709;28;20507;-50
2023/08/29 10:22:54;;;;;;;272.97;179.50;;;;;;;;;;5095338;28;20415;-50
2023/08/29 10:25:23;;;;;;;279.23;188.10;;;;;;;;;;5095318;28;20407;-51
2023/08/29 10:27:51;;;;;;;278.63;187.07;;;;;;;;;;5095473;28;20400;-49
2023/08/29 10:30:18;;;;;;;283.47;192.67;;;;;;;;;;5095074;28;20407;-50
2023/08/29 10:32:46;;;;;;;281.03;189.70;;;;;;;;;;5095075;28;20477;-51
2023/08/29 10:35:20;;;;;;;284.57;198.80;;;;;;;;;;5095009;28;20966;-50
2023/08/29 10:37:50;;;;;;;277.70;182.13;;;;;;;;;;5094888;28;20400;-49
2023/08/29 10:40:17;;;;;;;273.90;180.53;;;;;;;;;;5094833;28;20457;-49
2023/08/29 10:42:49;;;;;;;279.53;184.23;;;;;;;;;;5095009;28;20484;-50
2023/08/29 10:45:16;;;;;;;274.57;179.40;;;;;;;;;;5094899;28;20904;-50
2023/08/29 10:47:46;;;;;;;275.73;182.77;;;;;;;;;;5094961;28;20502;-50
2023/08/29 10:50:18;;;;;;;279.73;192.67;;;;;;;;;;5094458;28;20764;-50
2023/08/29 10:52:46;;;;;;;277.80;187.60;;;;;;;;;;5080035;28;20423;-51
2023/08/29 10:55:27;;;;;;;272.43;173.97;;;;;;;;;;5074474;28;20496;-50
2023/08/29 10:57:53;;;;;;;276.97;185.83;;;;;;;;;;5074538;28;20396;-51
2023/08/29 11:00:49;;;;;;;275.63;184.37;;;;;;;;;;5074251;28;20777;-51
2023/08/29 11:03:16;;;;;;;269.03;170.23;;;;;;;;;;5073369;28;20444;-50
2023/08/29 11:05:42;;;;;;;269.57;173.50;;;;;;;;;;5074376;28;20888;-50
2023/08/29 11:08:23;;;;;;;261.13;155.87;;;;;;;;;;5074416;28;20408;-51
2023/08/29 11:11:12;;;;;;;264.37;161.27;;;;;;;;;;5074122;28;20428;-50
2023/08/29 11:13:57;;;;;;;264.70;160.93;;;;;;;;;;5074197;28;20466;-50
2023/08/29 11:16:23;;;;;;;263.73;156.30;;;;;;;;;;5074574;28;20452;-50
2023/08/29 11:19:08;;;;;;;263.17;160.63;;;;;;;;;;5074056;28;20458;-51
2023/08/29 11:21:34;;;;;;;260.87;156.27;;;;;;;;;;5073974;28;20978;-51
2023/08/29 11:24:00;;;;;;;263.80;161.17;;;;;;;;;;5074099;28;20970;-50
2023/08/29 11:26:26;;;;;;;273.30;179.00;;;;;;;;;;5073848;28;20393;-50
2023/08/29 11:28:52;;;;;;;276.30;181.30;;;;;;;;;;5073889;28;20403;-51
2023/08/29 11:31:19;;;;;;;279.77;191.53;;;;;;;;;;5073682;28;20443;-50
2023/08/29 11:33:48;;;;;;;275.97;182.63;;;;;;;;;;5072563;28;20771;-50
2023/08/29 11:36:16;;;;;;;279.33;195.40;;;;;;;;;;5073708;28;20505;-49
2023/08/29 11:38:44;;;;;;;276.03;185.50;;;;;;;;;;5073766;28;20781;-50
2023/08/29 11:41:13;;;;;;;269.57;177.10;;;;;;;;;;5073396;28;20398;-49
2023/08/29 11:43:39;;;;;;;272.60;181.70;;;;;;;;;;5074057;28;20967;-49
2023/08/29 11:46:06;;;;;;;271.97;180.03;;;;;;;;;;5073534;28;20400;-49
2023/08/29 11:48:32;;;;;;;267.63;169.13;;;;;;;;;;5073513;28;20401;-50
2023/08/29 11:51:03;;;;;;;262.13;156.03;;;;;;;;;;5073202;28;20468;-49
2023/08/29 11:53:31;;;;;;;262.23;152.70;;;;;;;;;;5093885;28;20442;-49
2023/08/29 11:55:57;;;;;;;266.23;160.40;;;;;;;;;;5093552;28;20446;-50
2023/08/29 11:58:33;;;;;;;277.07;181.73;;;;;;;;;;5093563;28;20410;-49
2023/08/29 12:01:02;;;;;;;274.17;174.97;;;;;;;;;;5093197;28;20400;-50
2023/08/29 12:03:28;;;;;;;286.13;197.93;;;;;;;;;;5093338;28;20423;-49
2023/08/29 12:05:58;;;;;;;289.67;209.13;;;;;;;;;;5093586;28;20462;-49
2023/08/29 12:08:53;;;;;;;278.73;188.13;;;;;;;;;;5093893;28;20403;-50
2023/08/29 12:11:19;;;;;;;295.83;211.73;;;;;;;;;;5088366;28;20498;-50
2023/08/29 12:13:59;;;;;;;303.13;231.60;;;;;;;;;;5093111;28;21011;-50
2023/08/29 12:16:26;;;;;;;291.23;216.30;;;;;;;;;;5093695;28;20453;-50
2023/08/29 12:19:04;;;;;;;278.93;193.97;;;;;;;;;;5093208;28;20406;-49
2023/08/29 12:21:30;;;;;;;283.87;210.00;;;;;;;;;;5092801;28;20402;-49
2023/08/29 12:24:08;;;;;;;285.20;207.77;;;;;;;;;;5093330;28;20423;-49
2023/08/29 12:26:35;;;;;;;281.57;202.97;;;;;;;;;;5093224;28;20765;-49
2023/08/29 12:29:02;;;;;;;287.27;212.27;;;;;;;;;;5093040;28;20396;-50
2023/08/29 12:31:28;;;;;;;280.80;197.83;;;;;;;;;;5093255;28;20757;-49
2023/08/29 12:33:54;;;;;;;284.03;207.70;;;;;;;;;;5092538;28;20962;-50
2023/08/29 12:36:20;;;;;;;283.43;199.87;;;;;;;;;;5092771;28;20451;-51
2023/08/29 12:38:46;;;;;;;285.83;205.33;;;;;;;;;;5092364;28;20965;-49
2023/08/29 12:41:16;;;;;;;287.73;215.23;;;;;;;;;;5092562;28;20884;-50
2023/08/29 12:43:45;;;;;;;285.40;203.37;;;;;;;;;;5092974;28;20419;-49
2023/08/29 12:46:11;;;;;;;291.33;215.70;;;;;;;;;;5092732;28;20482;-50
2023/08/29 12:48:37;;;;;;;285.77;205.67;;;;;;;;;;5092709;28;20395;-50
2023/08/29 12:51:03;;;;;;;283.90;200.93;;;;;;;;;;5091535;28;20423;-49
2023/08/29 12:53:29;;;;;;;284.20;199.37;;;;;;;;;;5070928;28;20428;-50
2023/08/29 12:55:55;;;;;;;285.20;203.70;;;;;;;;;;5072252;28;20475;-49
2023/08/29 12:58:22;;;;;;;283.57;196.27;;;;;;;;;;5072314;28;20431;-49
2023/08/29 13:00:48;;;;;;;285.13;199.60;;;;;;;;;;5071934;28;20438;-49
2023/08/29 13:03:14;;;;;;;282.37;195.17;;;;;;;;;;5072109;28;20778;-49
2023/08/29 13:05:40;;;;;;;280.37;191.57;;;;;;;;;;5070844;28;20409;-49
2023/08/29 13:08:07;;;;;;;282.93;195.53;;;;;;;;;;5072680;28;20409;-50
2023/08/29 13:10:33;;;;;;;281.90;193.07;;;;;;;;;;5071916;28;20406;-50
2023/08/29 13:12:59;;;;;;;288.80;203.67;;;;;;;;;;5071986;28;20769;-49
2023/08/29 13:15:28;;;;;;;285.43;196.47;;;;;;;;;;5071909;28;21023;-50
2023/08/29 13:17:53;;;;;;;286.10;197.50;;;;;;;;;;5071917;28;20400;-50
2023/08/29 13:20:19;;;;;;;287.67;201.07;;;;;;;;;;5071863;28;20406;-50
2023/08/29 13:22:46;;;;;;;286.43;198.77;;;;;;;;;;5071846;28;20415;-50
2023/08/29 13:25:12;;;;;;;281.47;190.70;;;;;;;;;;5071730;28;20412;-50
2023/08/29 13:27:39;;;;;;;283.17;198.17;;;;;;;;;;5072009;28;20403;-50
2023/08/29 13:30:05;;;;;;;282.77;196.37;;;;;;;;;;5071442;28;20409;-50
2023/08/29 13:32:34;;;;;;;281.90;188.80;;;;;;;;;;5071752;28;20412;-50
2023/08/29 13:35:00;;;;;;;281.07;191.03;;;;;;;;;;5071717;28;20470;-51
2023/08/29 13:37:26;;;;;;;279.70;186.67;;;;;;;;;;5071676;28;20408;-50
2023/08/29 13:39:59;;;;;;;287.17;194.77;;;;;;;;;;5072648;28;20392;-50
2023/08/29 13:42:25;;;;;;;278.37;188.30;;;;;;;;;;5071685;28;20416;-49
2023/08/29 13:44:57;;;;;;;287.50;197.83;;;;;;;;;;5071460;28;20396;-50
2023/08/29 13:47:23;;;;;;;285.67;193.80;;;;;;;;;;5070628;28;20404;-49
2023/08/29 13:49:49;;;;;;;302.00;216.93;;;;;;;;;;5073126;28;20423;-49
2023/08/29 13:52:15;;;;;;;290.47;207.23;;;;;;;;;;5086717;28;20532;-51
2023/08/29 13:54:41;;;;;;;296.37;222.40;;;;;;;;;;5095841;28;20427;-49
2023/08/29 13:57:07;;;;;;;294.83;223.10;;;;;;;;;;5095862;28;20864;-49